Time;durP1;ratioP1;P1;durP2;ratioP2;P2;SDS_P1;SDS_P2;PMS_P1;PMS_P2;Temp;Humidity;BMP_temperature;BMP_pressure;BME280_temperature;BME280_humidity;BME280_pressure;Samples;Min_cycle;Max_cycle;Signal;HPM_P1;HPM_P2
2021/03/18 00:01:49;;;;;;;0.85;0.85;;;;;;;-0.21;100.00;101686.22;5013956;28;20065;-76
2021/03/18 00:04:53;;;;;;;1.00;1.00;;;;;;;-0.16;100.00;101688.69;5013810;28;20068;-77
2021/03/18 00:07:57;;;;;;;0.85;0.85;;;;;;;-0.15;100.00;101682.03;5013195;28;20141;-77
2021/03/18 00:11:07;;;;;;;0.80;0.80;;;;;;;-0.21;100.00;101682.69;5013697;28;20065;-76
2021/03/18 00:14:23;;;;;;;0.90;0.90;;;;;;;-0.28;100.00;101680.56;5013786;28;20076;-77
2021/03/18 00:17:26;;;;;;;0.80;0.80;;;;;;;-0.34;100.00;101681.22;5003946;28;20057;-77
2021/03/18 00:20:30;;;;;;;0.70;0.70;;;;;;;-0.40;100.00;101683.44;4993175;28;20073;-77
2021/03/18 00:23:34;;;;;;;0.93;0.93;;;;;;;-0.40;100.00;101688.91;4984072;28;20438;-77
2021/03/18 00:26:37;;;;;;;1.10;1.10;;;;;;;-0.35;100.00;101679.63;4974286;28;20542;-76
2021/03/18 00:29:41;;;;;;;0.90;0.90;;;;;;;-0.33;100.00;101678.13;4974598;28;20085;-77
2021/03/18 00:32:46;;;;;;;0.90;0.90;;;;;;;-0.32;100.00;101678.91;5003924;28;20057;-76
2021/03/18 00:35:49;;;;;;;0.80;0.80;;;;;;;-0.34;100.00;101684.75;4974193;28;20077;-76
2021/03/18 00:38:54;;;;;;;0.90;0.90;;;;;;;-0.34;100.00;101675.72;4973934;28;20062;-77
2021/03/18 00:41:57;;;;;;;0.98;0.98;;;;;;;-0.35;100.00;101674.97;4974180;28;20073;-77
2021/03/18 00:45:00;;;;;;;0.60;0.60;;;;;;;-0.40;100.00;101667.03;4973916;28;20069;-77
2021/03/18 00:48:07;;;;;;;0.90;0.90;;;;;;;-0.44;100.00;101663.41;4973976;28;20062;-76
2021/03/18 00:51:14;;;;;;;0.60;0.60;;;;;;;-0.46;100.00;101665.72;4973675;28;20074;-77
2021/03/18 00:54:18;;;;;;;0.77;0.77;;;;;;;-0.50;100.00;101662.13;4966079;28;20743;-78
2021/03/18 00:57:23;;;;;;;0.88;0.88;;;;;;;-0.52;100.00;101663.63;4935751;28;20058;-77
2021/03/18 01:00:59;;;;;;;1.05;1.05;;;;;;;-0.56;100.00;101658.03;4933269;28;20050;-77
2021/03/18 01:04:04;;;;;;;0.60;0.60;;;;;;;-0.52;100.00;101653.44;4935084;28;20074;-77
2021/03/18 01:07:07;;;;;;;0.50;0.50;;;;;;;-0.43;100.00;101650.50;4933476;28;20962;-77
2021/03/18 01:10:14;;;;;;;0.60;0.60;;;;;;;-0.52;100.00;101650.69;4932921;28;20054;-77
2021/03/18 01:13:21;;;;;;;0.80;0.80;;;;;;;-0.41;100.00;101642.75;4930710;28;20864;-77
2021/03/18 01:16:29;;;;;;;0.50;0.50;;;;;;;-0.46;100.00;101637.56;4933803;28;20062;-77
2021/03/18 01:19:32;;;;;;;0.82;0.82;;;;;;;-0.51;100.00;101637.81;4932958;28;20050;-76
2021/03/18 01:22:35;;;;;;;0.90;0.90;;;;;;;-0.52;100.00;101647.97;4949004;28;20057;-77
2021/03/18 01:25:39;;;;;;;1.00;1.00;;;;;;;-0.56;100.00;101641.63;4951786;28;20057;-77
2021/03/18 01:28:43;;;;;;;0.77;0.77;;;;;;;-0.48;100.00;101639.84;4958633;28;20655;-76
2021/03/18 01:31:47;;;;;;;0.63;0.63;;;;;;;-0.68;100.00;101644.50;4951352;28;20061;-76
2021/03/18 01:34:51;;;;;;;0.73;0.73;;;;;;;-0.61;100.00;101644.66;4951754;28;20058;-77
2021/03/18 01:37:54;;;;;;;0.73;0.73;;;;;;;-0.57;100.00;101639.25;4950912;28;20057;-77
2021/03/18 01:40:58;;;;;;;0.80;0.80;;;;;;;-0.59;100.00;101636.88;4952564;28;20077;-77
2021/03/18 01:44:03;;;;;;;0.85;0.85;;;;;;;-0.59;100.00;101642.34;4949262;28;20050;-78
2021/03/18 01:47:07;;;;;;;0.73;0.73;;;;;;;-0.62;100.00;101637.59;4952959;28;20066;-77
2021/03/18 01:50:12;;;;;;;0.88;0.88;;;;;;;-0.65;100.00;101640.25;4967560;28;20073;-76
2021/03/18 01:53:21;;;;;;;0.75;0.75;;;;;;;-0.65;100.00;101637.53;4971388;28;21063;-76
2021/03/18 01:56:24;;;;;;;0.65;0.65;;;;;;;-0.63;100.00;101627.81;4969220;28;20057;-76
2021/03/18 01:59:28;;;;;;;1.05;1.05;;;;;;;-0.64;100.00;101634.41;4970394;28;20048;-76
2021/03/18 02:02:33;;;;;;;1.00;1.00;;;;;;;-0.67;100.00;101624.19;4969984;28;20042;-76
2021/03/18 02:05:37;;;;;;;1.00;1.00;;;;;;;-0.70;100.00;101630.38;4971392;28;20073;-75
2021/03/18 02:08:40;;;;;;;0.77;0.77;;;;;;;-0.73;100.00;101631.06;4970144;28;20065;-76
2021/03/18 02:11:44;;;;;;;0.50;0.50;;;;;;;-0.75;100.00;101627.91;4971359;28;20198;-76
2021/03/18 02:14:48;;;;;;;0.93;0.93;;;;;;;-0.79;100.00;101616.91;4970266;28;20155;-76
2021/03/18 02:18:22;;;;;;;1.00;1.00;;;;;;;-0.80;100.00;101626.25;4963340;28;20057;-76
2021/03/18 02:21:37;;;;;;;0.85;0.85;;;;;;;-0.78;100.00;101631.38;4963868;28;20126;-76
2021/03/18 02:24:55;;;;;;;0.98;0.98;;;;;;;-0.81;100.00;101632.06;4962764;28;20053;-76
2021/03/18 02:28:26;;;;;;;1.00;1.00;;;;;;;-0.77;100.00;101625.53;4957178;28;20143;-76
2021/03/18 02:32:02;;;;;;;0.98;0.98;;;;;;;-0.78;100.00;101615.72;4969279;28;20688;-76
2021/03/18 02:35:18;;;;;;;0.80;0.80;;;;;;;-0.72;100.00;101604.53;5007154;28;20056;-76
2021/03/18 02:38:41;;;;;;;0.82;0.82;;;;;;;-0.69;100.00;101609.28;4998295;28;20061;-76
2021/03/18 02:41:49;;;;;;;1.02;1.02;;;;;;;-0.70;100.00;101608.50;4999264;28;20065;-76
2021/03/18 02:44:57;;;;;;;1.00;1.00;;;;;;;-0.70;100.00;101613.16;5004326;28;20053;-75
2021/03/18 02:48:03;;;;;;;0.82;0.82;;;;;;;-0.74;100.00;101607.63;5010880;28;20404;-76
2021/03/18 02:51:14;;;;;;;0.98;0.98;;;;;;;-0.80;100.00;101609.03;4995751;28;20057;-78
2021/03/18 02:54:20;;;;;;;0.80;0.80;;;;;;;-0.88;100.00;101612.75;4992462;28;20077;-78
2021/03/18 02:57:25;;;;;;;0.95;0.95;;;;;;;-0.91;100.00;101613.47;4991100;28;20065;-78
2021/03/18 03:00:29;;;;;;;0.80;0.80;;;;;;;-0.97;100.00;101599.28;4991255;28;20057;-78
2021/03/18 03:03:34;;;;;;;0.90;0.90;;;;;;;-0.96;100.00;101605.53;4990232;28;20054;-78
2021/03/18 03:06:39;;;;;;;0.85;0.85;;;;;;;-0.95;100.00;101601.66;4991140;28;20504;-78
2021/03/18 03:09:44;;;;;;;0.95;0.95;;;;;;;-0.95;100.00;101596.19;4999115;28;20488;-78
2021/03/18 03:12:48;;;;;;;1.10;1.10;;;;;;;-0.97;100.00;101593.00;4999022;28;20065;-78
2021/03/18 03:15:52;;;;;;;1.00;1.00;;;;;;;-0.91;100.00;101597.06;4998944;28;20062;-78
2021/03/18 03:18:57;;;;;;;1.20;1.20;;;;;;;-0.80;100.00;101592.63;5003873;28;20057;-76
2021/03/18 03:22:03;;;;;;;1.00;1.00;;;;;;;-0.85;100.00;101587.44;5005128;28;20077;-76
2021/03/18 03:25:09;;;;;;;0.90;0.90;;;;;;;-0.76;100.00;101593.50;5014713;28;20061;-76
2021/03/18 03:28:13;;;;;;;0.82;0.82;;;;;;;-0.69;100.00;101582.72;5014523;28;20064;-78
2021/03/18 03:31:17;;;;;;;1.00;1.00;;;;;;;-0.57;100.00;101584.53;5013107;28;20113;-76
2021/03/18 03:34:20;;;;;;;0.90;0.90;;;;;;;-0.44;100.00;101572.31;5014571;28;20065;-78
2021/03/18 03:37:24;;;;;;;1.27;1.27;;;;;;;-0.29;100.00;101572.25;5014407;28;20077;-76
2021/03/18 03:40:28;;;;;;;0.90;0.90;;;;;;;-0.14;100.00;101565.09;5014281;28;20463;-76
2021/03/18 03:43:32;;;;;;;0.98;0.98;;;;;;;-0.10;100.00;101561.28;5014252;28;20076;-78
2021/03/18 03:46:36;;;;;;;0.80;0.80;;;;;;;-0.01;100.00;101558.31;5014353;28;20068;-78
2021/03/18 03:49:41;;;;;;;0.95;0.95;;;;;;;0.11;100.00;101551.91;5012191;28;20061;-78
2021/03/18 03:53:18;;;;;;;0.75;0.75;;;;;;;0.19;100.00;101551.66;5013943;28;20061;-78
2021/03/18 03:56:30;;;;;;;0.80;0.80;;;;;;;0.24;100.00;101558.78;5006512;28;20068;-77
2021/03/18 03:59:38;;;;;;;2.50;1.30;;;;;;;0.28;100.00;101559.66;5013881;28;20074;-78
2021/03/18 04:02:43;;;;;;;0.80;0.80;;;;;;;0.39;100.00;101560.63;5014021;28;20069;-77
2021/03/18 04:05:47;;;;;;;0.88;0.88;;;;;;;0.48;100.00;101553.72;5013781;28;20069;-77
2021/03/18 04:08:52;;;;;;;0.65;0.65;;;;;;;0.57;100.00;101550.75;5013650;28;20068;-77
2021/03/18 04:11:58;;;;;;;0.77;0.77;;;;;;;0.64;100.00;101550.88;5012806;28;20057;-78
2021/03/18 04:15:08;;;;;;;0.90;0.90;;;;;;;0.75;100.00;101540.88;5013675;28;20064;-77
2021/03/18 04:18:14;;;;;;;0.80;0.80;;;;;;;0.93;100.00;101546.63;5012793;28;20061;-77
2021/03/18 04:21:19;;;;;;;0.70;0.70;;;;;;;1.08;100.00;101538.25;5012531;28;20065;-77
2021/03/18 04:24:24;;;;;;;0.80;0.80;;;;;;;1.05;100.00;101544.47;5012768;28;20069;-77
2021/03/18 04:27:30;;;;;;;0.70;0.70;;;;;;;1.09;100.00;101539.81;5013434;28;20056;-77
2021/03/18 04:30:34;;;;;;;0.68;0.68;;;;;;;1.18;100.00;101537.59;5013473;28;20137;-78
2021/03/18 04:33:39;;;;;;;0.77;0.77;;;;;;;1.25;100.00;101532.22;5013532;28;22541;-77
2021/03/18 04:36:43;;;;;;;0.65;0.65;;;;;;;1.30;100.00;101526.38;5013536;28;20398;-76
2021/03/18 04:39:48;;;;;;;0.50;0.50;;;;;;;1.39;100.00;101526.91;5013208;28;20530;-78
2021/03/18 04:42:52;;;;;;;0.60;0.60;;;;;;;1.59;100.00;101530.28;5013177;28;20060;-77
2021/03/18 04:45:59;;;;;;;0.70;0.70;;;;;;;1.80;100.00;101540.75;5013185;28;20064;-77
2021/03/18 04:49:04;;;;;;;0.60;0.60;;;;;;;1.97;100.00;101538.16;5013161;28;20064;-76
2021/03/18 04:52:08;;;;;;;0.68;0.68;;;;;;;2.08;100.00;101547.31;5012930;28;20125;-77
2021/03/18 04:55:12;;;;;;;0.22;0.22;;;;;;;2.27;100.00;101549.09;5012017;28;20543;-77
2021/03/18 04:58:19;;;;;;;0.60;0.60;;;;;;;2.36;100.00;101549.56;5012237;28;20056;-77
2021/03/18 05:01:25;;;;;;;0.50;0.50;;;;;;;2.41;100.00;101554.72;5012315;28;20061;-77
2021/03/18 05:04:32;;;;;;;0.70;0.70;;;;;;;2.38;100.00;101561.00;5011903;28;20072;-77
2021/03/18 05:07:36;;;;;;;0.52;0.52;;;;;;;2.15;100.00;101563.88;5012700;28;20065;-77
2021/03/18 05:10:41;;;;;;;0.57;0.57;;;;;;;2.04;100.00;101562.97;5012412;28;20080;-77
2021/03/18 05:13:45;;;;;;;3.22;1.02;;;;;;;2.01;100.00;101558.25;5012347;28;20129;-77
2021/03/18 05:16:51;;;;;;;0.50;0.50;;;;;;;2.04;100.00;101551.19;5012318;28;20527;-77
2021/03/18 05:19:54;;;;;;;0.73;0.73;;;;;;;2.13;100.00;101537.94;5012308;28;20065;-77
2021/03/18 05:22:58;;;;;;;0.50;0.50;;;;;;;2.24;100.00;101545.16;4992475;28;20587;-77
2021/03/18 05:26:03;;;;;;;0.32;0.32;;;;;;;2.36;100.00;101546.81;4992927;28;20065;-77
2021/03/18 05:29:07;;;;;;;0.45;0.45;;;;;;;2.38;100.00;101555.50;4992628;28;20057;-77
2021/03/18 05:32:11;;;;;;;0.50;0.50;;;;;;;2.43;100.00;101557.06;4992417;28;20062;-77
2021/03/18 05:35:14;;;;;;;0.43;0.43;;;;;;;2.52;100.00;101552.84;4992613;28;20463;-77
2021/03/18 05:38:18;;;;;;;0.32;0.32;;;;;;;2.59;100.00;101555.69;4991991;28;20061;-77
2021/03/18 05:41:22;;;;;;;0.38;0.38;;;;;;;2.65;100.00;101554.16;4992827;28;20115;-77
2021/03/18 05:44:26;;;;;;;0.52;0.52;;;;;;;2.70;100.00;101542.81;4992480;28;20071;-77
2021/03/18 05:47:32;;;;;;;0.68;0.68;;;;;;;2.79;100.00;101554.28;5013948;28;20053;-77
2021/03/18 05:50:37;;;;;;;0.43;0.43;;;;;;;2.83;100.00;101555.09;4992145;28;20057;-77
2021/03/18 05:53:43;;;;;;;0.60;0.60;;;;;;;2.86;100.00;101559.81;4992367;28;20531;-77
2021/03/18 05:56:48;;;;;;;0.50;0.50;;;;;;;2.92;100.00;101552.00;4991032;28;20073;-77
2021/03/18 05:59:53;;;;;;;0.50;0.50;;;;;;;2.95;100.00;101546.53;4991622;28;20062;-77
2021/03/18 06:02:57;;;;;;;0.40;0.40;;;;;;;3.02;100.00;101545.78;4991760;28;20058;-77
2021/03/18 06:06:02;;;;;;;0.50;0.50;;;;;;;3.10;100.00;101552.13;4992012;28;20061;-77
2021/03/18 06:09:07;;;;;;;0.50;0.50;;;;;;;3.16;100.00;101550.59;4991684;28;20081;-77
2021/03/18 06:12:11;;;;;;;0.52;0.52;;;;;;;3.20;100.00;101554.16;4992107;28;20062;-77
2021/03/18 06:15:16;;;;;;;0.47;0.47;;;;;;;3.26;100.00;101541.59;4992083;28;20409;-77
2021/03/18 06:18:20;;;;;;;0.60;0.60;;;;;;;3.28;100.00;101531.00;4991240;28;20531;-76
2021/03/18 06:21:51;;;;;;;0.32;0.32;;;;;;;3.32;100.00;101542.81;4998940;28;20420;-77
2021/03/18 06:24:55;;;;;;;0.30;0.30;;;;;;;3.36;100.00;101538.09;5010937;28;20064;-77
2021/03/18 06:28:23;;;;;;;0.43;0.43;;;;;;;3.41;100.00;101540.50;5010226;28;20060;-76
2021/03/18 06:31:31;;;;;;;0.60;0.60;;;;;;;3.40;100.00;101536.94;5011196;28;20060;-77
2021/03/18 06:34:54;;;;;;;0.40;0.40;;;;;;;3.43;100.00;101549.16;5009999;28;20464;-77
2021/03/18 06:37:57;;;;;;;0.30;0.30;;;;;;;3.49;100.00;101542.09;5011025;28;20057;-76
2021/03/18 06:41:00;;;;;;;0.20;0.20;;;;;;;3.53;100.00;101548.44;5011118;28;20088;-76
2021/03/18 06:44:21;;;;;;;0.30;0.30;;;;;;;3.55;100.00;101529.56;5010961;28;20065;-77
2021/03/18 06:47:40;;;;;;;0.20;0.20;;;;;;;3.61;100.00;101526.06;5010550;28;20523;-77
2021/03/18 06:50:46;;;;;;;0.30;0.30;;;;;;;3.69;100.00;101526.84;5010641;28;20302;-77
2021/03/18 06:53:51;;;;;;;0.30;0.30;;;;;;;3.74;100.00;101529.25;5010877;28;20076;-77
2021/03/18 06:56:59;;;;;;;0.40;0.40;;;;;;;3.77;100.00;101520.97;5008694;28;20061;-77
2021/03/18 07:00:09;;;;;;;0.45;0.45;;;;;;;3.80;100.00;101524.94;5010857;28;20061;-77
2021/03/18 07:03:30;;;;;;;0.50;0.50;;;;;;;3.81;100.00;101516.28;5011221;28;20061;-77
2021/03/18 07:06:35;;;;;;;0.40;0.40;;;;;;;3.87;100.00;101524.97;5009650;28;20436;-76
2021/03/18 07:09:40;;;;;;;0.60;0.60;;;;;;;3.95;100.00;101514.72;5010674;28;20065;-77
2021/03/18 07:12:43;;;;;;;0.60;0.60;;;;;;;4.01;100.00;101524.19;5010377;28;20072;-77
2021/03/18 07:15:48;;;;;;;0.30;0.30;;;;;;;4.05;100.00;101519.50;5010179;28;20065;-77
2021/03/18 07:18:56;;;;;;;0.30;0.30;;;;;;;4.06;100.00;101524.63;5009449;28;20065;-77
2021/03/18 07:22:00;;;;;;;0.47;0.47;;;;;;;4.09;100.00;101515.56;5010546;28;20061;-78
2021/03/18 07:25:08;;;;;;;0.35;0.35;;;;;;;4.14;100.00;101526.19;5010406;28;20057;-77
2021/03/18 07:28:14;;;;;;;0.40;0.40;;;;;;;4.17;100.00;101532.91;5009546;28;20558;-77
2021/03/18 07:31:20;;;;;;;0.30;0.30;;;;;;;4.22;100.00;101530.53;5010395;28;20057;-77
2021/03/18 07:34:25;;;;;;;0.40;0.40;;;;;;;4.28;100.00;101523.47;5010538;28;20069;-77
2021/03/18 07:37:28;;;;;;;0.30;0.30;;;;;;;4.32;100.00;101526.22;5010020;28;20065;-77
2021/03/18 07:40:32;;;;;;;0.50;0.50;;;;;;;4.40;100.00;101525.03;5010538;28;20060;-77
2021/03/18 07:43:37;;;;;;;0.30;0.30;;;;;;;4.44;100.00;101526.63;5010146;28;20065;-77
2021/03/18 07:46:41;;;;;;;0.20;0.20;;;;;;;4.50;100.00;101525.06;5010532;28;20065;-77
2021/03/18 07:49:47;;;;;;;0.40;0.40;;;;;;;4.53;100.00;101524.28;5009020;28;20065;-77
2021/03/18 07:52:52;;;;;;;0.30;0.30;;;;;;;4.54;100.00;101506.56;5003607;28;20057;-77
2021/03/18 07:55:57;;;;;;;0.40;0.40;;;;;;;4.55;100.00;101516.38;5007137;28;20057;-77
2021/03/18 07:59:07;;;;;;;0.25;0.25;;;;;;;4.58;100.00;101504.56;5005039;28;20066;-77
2021/03/18 08:02:20;;;;;;;0.30;0.30;;;;;;;4.61;100.00;101498.25;4990966;28;20280;-76
2021/03/18 08:05:38;;;;;;;0.28;0.28;;;;;;;4.70;100.00;101497.09;4990098;28;20065;-76
2021/03/18 08:08:42;;;;;;;0.32;0.32;;;;;;;4.77;100.00;101502.56;4991890;28;20070;-78
2021/03/18 08:11:47;;;;;;;0.20;0.20;;;;;;;4.84;100.00;101506.13;4994020;28;20065;-77
2021/03/18 08:15:31;;;;;;;0.10;0.10;;;;;;;4.94;100.00;101496.25;4994026;28;20279;-77
2021/03/18 08:18:37;;;;;;;0.28;0.28;;;;;;;5.05;100.00;101480.44;4993505;28;20411;-76
2021/03/18 08:21:51;;;;;;;0.30;0.30;;;;;;;5.05;100.00;101480.44;4993937;28;20081;-77
2021/03/18 08:25:21;;;;;;;0.30;0.30;;;;;;;5.07;100.00;101481.63;4993712;28;20057;-76
2021/03/18 08:28:36;;;;;;;0.20;0.20;;;;;;;5.09;100.00;101479.25;4993467;28;20066;-76
2021/03/18 08:31:51;;;;;;;0.40;0.35;;;;;;;5.12;100.00;101484.00;4993490;28;20061;-77
2021/03/18 08:34:55;;;;;;;0.10;0.10;;;;;;;5.17;100.00;101485.56;4993532;28;20069;-77
2021/03/18 08:38:16;;;;;;;0.20;0.20;;;;;;;5.23;100.00;101484.75;4993661;28;20535;-76
2021/03/18 08:41:40;;;;;;;0.22;0.22;;;;;;;5.33;100.00;101478.38;4993269;28;20061;-76
2021/03/18 08:44:44;;;;;;;0.25;0.25;;;;;;;5.40;100.00;101477.56;4993539;28;20070;-76
2021/03/18 08:47:49;;;;;;;0.10;0.10;;;;;;;5.49;100.00;101477.16;4993365;28;20077;-77
2021/03/18 08:50:54;;;;;;;0.20;0.20;;;;;;;5.56;100.00;101480.69;4992973;28;20062;-79
2021/03/18 08:53:57;;;;;;;0.40;0.40;;;;;;;5.63;100.00;101485.38;4993259;28;20069;-78
2021/03/18 08:57:01;;;;;;;0.20;0.20;;;;;;;5.71;100.00;101473.88;4992722;28;20061;-77
2021/03/18 09:00:07;;;;;;;0.10;0.10;;;;;;;5.77;100.00;101474.25;5000448;28;20130;-76
2021/03/18 09:03:19;;;;;;;0.10;0.10;;;;;;;5.84;100.00;101468.72;4993903;28;20058;-76
2021/03/18 09:06:22;;;;;;;0.10;0.10;;;;;;;5.88;100.00;101464.75;5009426;28;20411;-76
2021/03/18 09:09:26;;;;;;;0.22;0.22;;;;;;;5.99;100.00;101464.66;5011896;28;20061;-77
2021/03/18 09:12:39;;;;;;;0.10;0.10;;;;;;;6.06;100.00;101462.63;5012833;28;20069;-77
2021/03/18 09:15:44;;;;;;;0.20;0.20;;;;;;;6.08;100.00;101462.25;5012336;28;20416;-77
2021/03/18 09:18:56;;;;;;;0.13;0.13;;;;;;;6.07;100.00;101453.16;5005139;28;20456;-75
2021/03/18 09:21:59;;;;;;;0.10;0.10;;;;;;;6.11;100.00;101447.59;5012082;28;20061;-77
2021/03/18 09:25:03;;;;;;;0.47;0.47;;;;;;;6.29;100.00;101439.16;4992535;28;20077;-77
2021/03/18 09:28:09;;;;;;;0.25;0.25;;;;;;;6.39;100.00;101444.59;4992559;28;20094;-78
2021/03/18 09:31:14;;;;;;;0.20;0.20;;;;;;;6.48;100.00;101446.88;4992200;28;20057;-78
2021/03/18 09:34:17;;;;;;;0.10;0.10;;;;;;;6.51;100.00;101451.63;4991312;28;20081;-78
2021/03/18 09:37:20;;;;;;;0.25;0.25;;;;;;;6.62;100.00;101449.53;4992085;28;20070;-78
2021/03/18 09:40:35;;;;;;;0.20;0.20;;;;;;;6.70;100.00;101442.72;4991516;28;20054;-78
2021/03/18 09:43:38;;;;;;;0.10;0.10;;;;;;;6.70;100.00;101442.72;4992564;28;20416;-78
2021/03/18 09:46:48;;;;;;;0.20;0.20;;;;;;;6.67;100.00;101446.34;4990951;28;20069;-77
2021/03/18 09:49:52;;;;;;;0.10;0.10;;;;;;;6.73;100.00;101453.00;4999818;28;20050;-78
2021/03/18 09:53:10;;;;;;;0.10;0.10;;;;;;;6.74;100.00;101449.03;4999899;28;20058;-78
2021/03/18 09:56:15;;;;;;;0.10;0.10;;;;;;;6.77;100.00;101439.91;4991500;28;20058;-78
2021/03/18 09:59:23;;;;;;;0.10;0.10;;;;;;;6.80;100.00;101444.59;4991356;28;20057;-78
2021/03/18 10:02:29;;;;;;;0.17;0.17;;;;;;;6.87;100.00;101430.69;4992409;28;20413;-78
2021/03/18 10:05:33;;;;;;;0.15;0.15;;;;;;;6.94;100.00;101440.91;4991923;28;20061;-77
2021/03/18 10:08:37;;;;;;;0.10;0.10;;;;;;;6.93;100.00;101444.88;4991701;28;20057;-78
2021/03/18 10:11:45;;;;;;;0.47;0.20;;;;;;;6.94;100.00;101450.00;4991775;28;20066;-78
2021/03/18 10:14:57;;;;;;;0.20;0.20;;;;;;;6.92;100.00;101449.63;4999834;28;20061;-77
2021/03/18 10:18:01;;;;;;;0.20;0.20;;;;;;;6.92;100.00;101446.88;5000142;28;20521;-77
2021/03/18 10:21:05;;;;;;;0.10;0.10;;;;;;;6.93;100.00;101450.44;4991550;28;20057;-79
2021/03/18 10:24:12;;;;;;;0.10;0.10;;;;;;;6.89;100.00;101451.25;4991672;28;20057;-77
2021/03/18 10:27:16;;;;;;;0.10;0.10;;;;;;;6.85;100.00;101450.50;4991828;28;20077;-78
2021/03/18 10:30:22;;;;;;;0.25;0.25;;;;;;;6.59;100.00;101447.59;4991743;28;20492;-78
2021/03/18 10:33:26;;;;;;;0.20;0.20;;;;;;;6.52;100.00;101447.66;4991618;28;20413;-77
2021/03/18 10:36:39;;;;;;;0.75;0.32;;;;;;;6.50;100.00;101444.50;4991707;28;20069;-78
2021/03/18 10:39:42;;;;;;;0.10;0.10;;;;;;;6.50;100.00;101445.28;4991499;28;20065;-78
2021/03/18 10:42:49;;;;;;;0.10;0.10;;;;;;;6.48;100.00;101433.84;4991283;28;20073;-78
2021/03/18 10:46:03;;;;;;;0.10;0.10;;;;;;;6.51;100.00;101435.81;4989994;28;20061;-78
2021/03/18 10:49:11;;;;;;;0.17;0.17;;;;;;;6.45;100.00;101434.69;4997726;28;20505;-77
2021/03/18 10:52:15;;;;;;;0.10;0.10;;;;;;;6.47;100.00;101439.78;4988218;28;20208;-77
2021/03/18 10:55:23;;;;;;;0.10;0.10;;;;;;;6.48;100.00;101424.75;4998477;28;20429;-77
2021/03/18 10:58:27;;;;;;;0.20;0.20;;;;;;;6.54;100.00;101429.44;4991080;28;20054;-77
2021/03/18 11:01:31;;;;;;;0.10;0.10;;;;;;;6.54;100.00;101414.84;4984703;28;20065;-77
2021/03/18 11:04:50;;;;;;;0.15;0.15;;;;;;;6.52;100.00;101425.53;4986608;28;20054;-78
2021/03/18 11:07:55;;;;;;;0.13;0.13;;;;;;;6.55;100.00;101419.16;4990093;28;20072;-78
2021/03/18 11:11:00;;;;;;;0.15;0.15;;;;;;;6.56;100.00;101420.75;4989061;28;20399;-77
2021/03/18 11:14:12;;;;;;;0.20;0.20;;;;;;;6.60;100.00;101416.75;4987583;28;20662;-78
2021/03/18 11:17:16;;;;;;;0.90;0.40;;;;;;;6.66;100.00;101425.38;4981400;28;20065;-77
2021/03/18 11:20:20;;;;;;;0.10;0.10;;;;;;;6.75;100.00;101417.38;4988559;28;20496;-78
2021/03/18 11:23:33;;;;;;;0.10;0.10;;;;;;;6.83;100.00;101418.88;4971452;28;20532;-77
2021/03/18 11:26:40;;;;;;;0.15;0.15;;;;;;;6.81;100.00;101415.72;4971564;28;20062;-77
2021/03/18 11:29:44;;;;;;;0.10;0.10;;;;;;;6.86;100.00;101418.06;5011464;28;20054;-79
2021/03/18 11:32:47;;;;;;;0.10;0.10;;;;;;;6.86;100.00;101418.06;5003335;28;20085;-78
2021/03/18 11:35:51;;;;;;;0.10;0.10;;;;;;;6.93;100.00;101417.97;4987624;28;20065;-76
2021/03/18 11:38:55;;;;;;;0.10;0.10;;;;;;;7.00;100.00;101406.81;4979187;28;20069;-75
2021/03/18 11:42:00;;;;;;;0.10;0.10;;;;;;;7.05;100.00;101409.13;4979881;28;20527;-77
2021/03/18 11:45:04;;;;;;;0.17;0.17;;;;;;;7.11;100.00;101406.69;5002051;28;20057;-78
2021/03/18 11:48:09;;;;;;;0.20;0.20;;;;;;;7.22;100.00;101404.56;5000541;28;20061;-77
2021/03/18 11:51:12;;;;;;;0.10;0.10;;;;;;;7.31;100.00;101405.66;4979646;28;20076;-77
2021/03/18 11:54:15;;;;;;;0.20;0.20;;;;;;;7.54;100.00;101407.69;4974079;28;20054;-77
2021/03/18 11:57:20;;;;;;;0.20;0.20;;;;;;;7.62;100.00;101407.19;4973306;28;20062;-77
2021/03/18 12:00:31;;;;;;;0.10;0.10;;;;;;;7.64;100.00;101401.25;4975064;28;20066;-77
2021/03/18 12:03:35;;;;;;;;;;;;;;;7.68;100.00;101401.19;4974463;28;20062;-77
2021/03/18 12:06:39;;;;;;;0.10;0.10;;;;;;;7.77;100.00;101382.81;4972898;28;19922;-77
2021/03/18 12:09:42;;;;;;;0.10;0.10;;;;;;;7.88;100.00;101372.34;4982300;28;20062;-77
2021/03/18 12:12:46;;;;;;;0.13;0.13;;;;;;;7.91;100.00;101365.16;4982037;28;20058;-77
2021/03/18 12:15:49;;;;;;;0.20;0.20;;;;;;;8.04;100.00;101353.06;4987388;28;20073;-77
2021/03/18 12:18:53;;;;;;;0.10;0.03;;;;;;;8.07;100.00;101348.66;4986648;28;20065;-77
2021/03/18 12:21:56;;;;;;;0.10;0.10;;;;;;;7.97;100.00;101352.41;4995477;28;20065;-77
2021/03/18 12:25:00;;;;;;;0.10;0.10;;;;;;;7.76;100.00;101336.09;5007278;28;20061;-77
2021/03/18 12:28:04;;;;;;;0.10;0.10;;;;;;;7.70;100.00;101332.22;5007160;28;20053;-77
2021/03/18 12:31:07;;;;;;;0.10;0.10;;;;;;;7.67;100.00;101338.63;5008944;28;20060;-77
2021/03/18 12:34:11;;;;;;;0.10;0.10;;;;;;;7.75;100.00;101331.75;5001425;28;20528;-78
2021/03/18 12:37:15;;;;;;;0.10;0.10;;;;;;;7.89;100.00;101324.00;5001418;28;20062;-77
2021/03/18 12:40:21;;;;;;;0.10;0.10;;;;;;;8.04;100.00;101318.97;5031009;28;20519;-77
2021/03/18 12:43:25;;;;;;;0.10;0.10;;;;;;;8.12;100.00;101312.88;5003729;28;20080;-77
2021/03/18 12:46:29;;;;;;;0.10;0.10;;;;;;;8.21;100.00;101312.31;5004058;28;20459;-77
2021/03/18 12:49:32;;;;;;;0.20;0.20;;;;;;;8.38;100.00;101305.72;5002252;28;20069;-77
2021/03/18 12:52:36;;;;;;;0.10;0.10;;;;;;;8.52;100.00;101301.88;5001046;28;20417;-76
2021/03/18 12:55:40;;;;;;;0.10;0.10;;;;;;;8.61;100.00;101294.56;5003157;28;20523;-77
2021/03/18 12:58:43;;;;;;;0.10;0.10;;;;;;;8.72;100.00;101286.00;4996380;28;20065;-77
2021/03/18 13:01:47;;;;;;;0.10;0.10;;;;;;;8.76;100.00;101279.16;4993280;28;20070;-77
2021/03/18 13:04:51;;;;;;;0.17;0.17;;;;;;;8.84;100.00;101272.25;5000767;28;20081;-78
2021/03/18 13:07:55;;;;;;;0.10;0.10;;;;;;;8.94;100.00;101268.44;5002422;28;20073;-76
2021/03/18 13:10:59;;;;;;;0.10;0.10;;;;;;;8.95;100.00;101261.69;5001950;28;20358;-78
2021/03/18 13:14:03;;;;;;;0.10;0.10;;;;;;;8.98;100.00;101254.50;4997756;28;20057;-80
2021/03/18 13:17:07;;;;;;;0.10;0.10;;;;;;;9.13;100.00;101256.53;5006025;28;20058;-79
2021/03/18 13:20:14;;;;;;;0.10;0.10;;;;;;;9.16;100.00;101261.22;5018370;28;20065;-79
2021/03/18 13:23:18;;;;;;;0.10;0.10;;;;;;;9.20;100.00;101254.78;4991117;28;20109;-79
2021/03/18 13:26:22;;;;;;;0.05;0.05;;;;;;;9.18;100.00;101249.69;4972912;28;20441;-78
2021/03/18 13:29:26;;;;;;;0.20;0.20;;;;;;;9.20;100.00;101249.25;4981254;28;20081;-76
2021/03/18 13:32:30;;;;;;;0.10;0.10;;;;;;;9.19;100.00;101242.88;4983492;28;20066;-81
2021/03/18 13:35:36;;;;;;;0.10;0.00;;;;;;;9.06;100.00;101240.00;4991816;28;20057;-81
2021/03/18 13:38:39;;;;;;;0.10;0.10;;;;;;;8.89;100.00;101240.41;4992730;28;20096;-81
2021/03/18 13:41:43;;;;;;;0.10;0.10;;;;;;;8.84;100.00;101238.91;4992357;28;20054;-82
2021/03/18 13:44:46;;;;;;;0.10;0.10;;;;;;;8.90;100.00;101237.19;4989545;28;20065;-82
2021/03/18 13:47:50;;;;;;;0.10;0.10;;;;;;;8.99;100.00;101236.59;4990239;28;20062;-82
2021/03/18 13:50:56;;;;;;;0.10;0.10;;;;;;;9.06;100.00;101228.88;5003851;28;20630;-77
2021/03/18 13:54:00;;;;;;;0.10;0.00;;;;;;;9.14;100.00;101216.38;4980853;28;20062;-82
2021/03/18 13:57:03;;;;;;;0.10;0.10;;;;;;;9.28;100.00;101218.06;4999890;28;20069;-81
2021/03/18 14:00:08;;;;;;;0.10;0.10;;;;;;;9.42;100.00;101216.94;4999872;28;20081;-80
2021/03/18 14:03:11;;;;;;;0.10;0.10;;;;;;;9.43;100.00;101213.72;4991931;28;20061;-80
2021/03/18 14:06:14;;;;;;;0.10;0.10;;;;;;;9.42;100.00;101203.03;4990825;28;20062;-83
2021/03/18 14:09:18;;;;;;;0.10;0.10;;;;;;;9.33;100.00;101205.63;4991009;28;20062;-81
2021/03/18 14:12:21;;;;;;;0.10;0.10;;;;;;;9.31;100.00;101208.06;4991494;28;20061;-81
2021/03/18 14:15:25;;;;;;;0.10;0.10;;;;;;;9.44;100.00;101203.38;4990699;28;20416;-80
2021/03/18 14:18:30;;;;;;;0.10;0.03;;;;;;;9.52;100.00;101197.22;4991266;28;20057;-80
2021/03/18 14:21:33;;;;;;;0.10;0.10;;;;;;;9.52;100.00;101199.19;5013049;28;20559;-80
2021/03/18 14:24:37;;;;;;;0.10;0.10;;;;;;;9.46;100.00;101198.16;4990171;28;20073;-80
2021/03/18 14:27:42;;;;;;;0.10;0.10;;;;;;;9.48;100.00;101199.31;4991228;28;20061;-81